sensor_id;sensor_type;location;lat;lon;timestamp;P1;durP1;ratioP1;P2;durP2;ratioP2
4420;SDS011;11824;51.178;13.546;2023-10-19T00:02:14;14.70;;;6.40;;
4420;SDS011;11824;51.178;13.546;2023-10-19T00:04:46;10.70;;;5.93;;
4420;SDS011;11824;51.178;13.546;2023-10-19T00:07:15;14.63;;;6.70;;
4420;SDS011;11824;51.178;13.546;2023-10-19T00:09:44;9.50;;;5.47;;
4420;SDS011;11824;51.178;13.546;2023-10-19T00:12:17;7.70;;;5.80;;
4420;SDS011;11824;51.178;13.546;2023-10-19T00:14:48;14.37;;;6.10;;
4420;SDS011;11824;51.178;13.546;2023-10-19T00:17:19;18.30;;;8.07;;
4420;SDS011;11824;51.178;13.546;2023-10-19T00:19:47;9.53;;;6.10;;
4420;SDS011;11824;51.178;13.546;2023-10-19T00:22:37;9.57;;;6.23;;
4420;SDS011;11824;51.178;13.546;2023-10-19T00:25:05;13.20;;;5.57;;
4420;SDS011;11824;51.178;13.546;2023-10-19T00:27:39;8.30;;;5.20;;
4420;SDS011;11824;51.178;13.546;2023-10-19T00:30:09;11.17;;;5.47;;
4420;SDS011;11824;51.178;13.546;2023-10-19T00:32:39;22.83;;;6.27;;
4420;SDS011;11824;51.178;13.546;2023-10-19T00:35:09;14.17;;;5.80;;
4420;SDS011;11824;51.178;13.546;2023-10-19T00:37:55;8.13;;;5.50;;
4420;SDS011;11824;51.178;13.546;2023-10-19T00:40:49;20.70;;;6.43;;
4420;SDS011;11824;51.178;13.546;2023-10-19T00:43:26;9.03;;;5.70;;
4420;SDS011;11824;51.178;13.546;2023-10-19T00:45:59;8.47;;;5.50;;
4420;SDS011;11824;51.178;13.546;2023-10-19T00:48:31;16.47;;;6.30;;
4420;SDS011;11824;51.178;13.546;2023-10-19T00:51:01;13.93;;;6.07;;
4420;SDS011;11824;51.178;13.546;2023-10-19T00:53:48;8.60;;;5.17;;
4420;SDS011;11824;51.178;13.546;2023-10-19T00:56:17;5.83;;;5.13;;
4420;SDS011;11824;51.178;13.546;2023-10-19T00:58:49;10.23;;;5.90;;
4420;SDS011;11824;51.178;13.546;2023-10-19T01:01:23;18.50;;;5.87;;
4420;SDS011;11824;51.178;13.546;2023-10-19T01:03:57;12.77;;;5.83;;
4420;SDS011;11824;51.178;13.546;2023-10-19T01:06:25;8.47;;;6.00;;
4420;SDS011;11824;51.178;13.546;2023-10-19T01:08:59;12.13;;;6.30;;
4420;SDS011;11824;51.178;13.546;2023-10-19T01:11:29;11.67;;;6.37;;
4420;SDS011;11824;51.178;13.546;2023-10-19T01:16:45;9.40;;;6.07;;
4420;SDS011;11824;51.178;13.546;2023-10-19T01:19:16;20.43;;;6.00;;
4420;SDS011;11824;51.178;13.546;2023-10-19T01:21:47;10.93;;;5.50;;
4420;SDS011;11824;51.178;13.546;2023-10-19T01:24:20;8.30;;;5.50;;
4420;SDS011;11824;51.178;13.546;2023-10-19T01:27:02;20.03;;;6.33;;
4420;SDS011;11824;51.178;13.546;2023-10-19T01:29:35;11.63;;;5.70;;
4420;SDS011;11824;51.178;13.546;2023-10-19T01:32:06;7.70;;;6.00;;
4420;SDS011;11824;51.178;13.546;2023-10-19T01:34:35;10.70;;;6.47;;
4420;SDS011;11824;51.178;13.546;2023-10-19T01:37:04;7.50;;;5.20;;
4420;SDS011;11824;51.178;13.546;2023-10-19T01:39:34;11.90;;;5.37;;
4420;SDS011;11824;51.178;13.546;2023-10-19T01:42:05;9.93;;;6.83;;
4420;SDS011;11824;51.178;13.546;2023-10-19T01:44:35;7.50;;;5.73;;
4420;SDS011;11824;51.178;13.546;2023-10-19T01:47:03;9.77;;;5.87;;
4420;SDS011;11824;51.178;13.546;2023-10-19T01:49:32;10.90;;;6.07;;
4420;SDS011;11824;51.178;13.546;2023-10-19T01:52:00;7.83;;;5.53;;
4420;SDS011;11824;51.178;13.546;2023-10-19T01:54:30;12.73;;;6.93;;
4420;SDS011;11824;51.178;13.546;2023-10-19T01:57:02;11.93;;;5.90;;
4420;SDS011;11824;51.178;13.546;2023-10-19T01:59:31;8.37;;;5.80;;
4420;SDS011;11824;51.178;13.546;2023-10-19T02:02:00;7.30;;;4.53;;
4420;SDS011;11824;51.178;13.546;2023-10-19T02:04:30;15.50;;;5.97;;
4420;SDS011;11824;51.178;13.546;2023-10-19T02:07:01;10.33;;;6.00;;
4420;SDS011;11824;51.178;13.546;2023-10-19T02:09:30;10.50;;;7.10;;
4420;SDS011;11824;51.178;13.546;2023-10-19T02:12:01;13.67;;;6.70;;
4420;SDS011;11824;51.178;13.546;2023-10-19T02:14:33;12.03;;;6.70;;
4420;SDS011;11824;51.178;13.546;2023-10-19T02:17:01;20.63;;;6.70;;
4420;SDS011;11824;51.178;13.546;2023-10-19T02:19:30;12.17;;;6.67;;
4420;SDS011;11824;51.178;13.546;2023-10-19T02:21:59;16.00;;;7.47;;
4420;SDS011;11824;51.178;13.546;2023-10-19T02:24:30;12.87;;;6.80;;
4420;SDS011;11824;51.178;13.546;2023-10-19T02:26:59;10.83;;;6.60;;
4420;SDS011;11824;51.178;13.546;2023-10-19T02:29:30;14.30;;;6.17;;
4420;SDS011;11824;51.178;13.546;2023-10-19T02:31:58;12.47;;;7.70;;
4420;SDS011;11824;51.178;13.546;2023-10-19T02:34:30;13.70;;;7.10;;
4420;SDS011;11824;51.178;13.546;2023-10-19T02:36:58;15.07;;;6.23;;
4420;SDS011;11824;51.178;13.546;2023-10-19T02:39:28;14.53;;;6.80;;
4420;SDS011;11824;51.178;13.546;2023-10-19T02:41:57;9.10;;;6.73;;
4420;SDS011;11824;51.178;13.546;2023-10-19T02:44:29;11.63;;;7.07;;
4420;SDS011;11824;51.178;13.546;2023-10-19T02:46:59;13.73;;;7.40;;
4420;SDS011;11824;51.178;13.546;2023-10-19T02:49:32;15.20;;;8.67;;
4420;SDS011;11824;51.178;13.546;2023-10-19T02:52:05;11.10;;;6.93;;
4420;SDS011;11824;51.178;13.546;2023-10-19T02:54:32;19.43;;;7.53;;
4420;SDS011;11824;51.178;13.546;2023-10-19T02:57:02;13.97;;;7.30;;
4420;SDS011;11824;51.178;13.546;2023-10-19T02:59:35;14.93;;;8.07;;
4420;SDS011;11824;51.178;13.546;2023-10-19T03:02:03;10.37;;;7.50;;
4420;SDS011;11824;51.178;13.546;2023-10-19T03:04:42;11.03;;;7.07;;
4420;SDS011;11824;51.178;13.546;2023-10-19T03:07:12;12.13;;;8.00;;
4420;SDS011;11824;51.178;13.546;2023-10-19T03:09:42;13.87;;;7.83;;
4420;SDS011;11824;51.178;13.546;2023-10-19T03:12:16;14.77;;;7.60;;
4420;SDS011;11824;51.178;13.546;2023-10-19T03:14:46;14.20;;;8.23;;
4420;SDS011;11824;51.178;13.546;2023-10-19T03:17:15;10.30;;;7.43;;
4420;SDS011;11824;51.178;13.546;2023-10-19T03:19:44;9.90;;;7.47;;
4420;SDS011;11824;51.178;13.546;2023-10-19T03:22:14;13.50;;;8.30;;
4420;SDS011;11824;51.178;13.546;2023-10-19T03:24:43;10.60;;;7.93;;
4420;SDS011;11824;51.178;13.546;2023-10-19T03:27:13;12.10;;;8.47;;
4420;SDS011;11824;51.178;13.546;2023-10-19T03:29:44;15.17;;;8.57;;
4420;SDS011;11824;51.178;13.546;2023-10-19T03:32:20;20.57;;;8.60;;
4420;SDS011;11824;51.178;13.546;2023-10-19T03:34:53;14.50;;;8.37;;
4420;SDS011;11824;51.178;13.546;2023-10-19T03:37:23;14.23;;;8.60;;
4420;SDS011;11824;51.178;13.546;2023-10-19T03:39:55;14.00;;;9.00;;
4420;SDS011;11824;51.178;13.546;2023-10-19T03:42:25;16.70;;;8.80;;
4420;SDS011;11824;51.178;13.546;2023-10-19T03:45:00;12.77;;;8.93;;
4420;SDS011;11824;51.178;13.546;2023-10-19T03:47:34;13.00;;;8.83;;
4420;SDS011;11824;51.178;13.546;2023-10-19T03:50:05;15.63;;;8.97;;
4420;SDS011;11824;51.178;13.546;2023-10-19T03:52:40;19.10;;;10.10;;
4420;SDS011;11824;51.178;13.546;2023-10-19T03:55:09;16.03;;;10.43;;
4420;SDS011;11824;51.178;13.546;2023-10-19T03:57:41;18.00;;;9.90;;
4420;SDS011;11824;51.178;13.546;2023-10-19T04:00:15;14.20;;;11.23;;
4420;SDS011;11824;51.178;13.546;2023-10-19T04:02:45;15.90;;;9.73;;
4420;SDS011;11824;51.178;13.546;2023-10-19T04:05:14;16.50;;;9.97;;
4420;SDS011;11824;51.178;13.546;2023-10-19T04:07:47;13.53;;;9.40;;
4420;SDS011;11824;51.178;13.546;2023-10-19T04:10:20;21.77;;;11.00;;
4420;SDS011;11824;51.178;13.546;2023-10-19T04:13:11;17.10;;;11.07;;
4420;SDS011;11824;51.178;13.546;2023-10-19T04:15:41;16.17;;;9.70;;
4420;SDS011;11824;51.178;13.546;2023-10-19T04:18:11;21.37;;;10.10;;
4420;SDS011;11824;51.178;13.546;2023-10-19T04:20:40;16.10;;;10.77;;
4420;SDS011;11824;51.178;13.546;2023-10-19T04:23:24;17.43;;;11.00;;
4420;SDS011;11824;51.178;13.546;2023-10-19T04:25:54;19.40;;;10.73;;
4420;SDS011;11824;51.178;13.546;2023-10-19T04:28:25;18.63;;;11.33;;
4420;SDS011;11824;51.178;13.546;2023-10-19T04:31:06;18.97;;;11.70;;
4420;SDS011;11824;51.178;13.546;2023-10-19T04:33:40;20.60;;;11.27;;
4420;SDS011;11824;51.178;13.546;2023-10-19T04:36:13;16.47;;;11.77;;
4420;SDS011;11824;51.178;13.546;2023-10-19T04:38:42;22.83;;;13.90;;
4420;SDS011;11824;51.178;13.546;2023-10-19T04:41:11;19.27;;;12.37;;
4420;SDS011;11824;51.178;13.546;2023-10-19T04:43:41;25.40;;;13.17;;
4420;SDS011;11824;51.178;13.546;2023-10-19T04:46:18;17.23;;;12.77;;
4420;SDS011;11824;51.178;13.546;2023-10-19T04:48:47;27.33;;;14.60;;
4420;SDS011;11824;51.178;13.546;2023-10-19T04:51:16;24.87;;;13.60;;
4420;SDS011;11824;51.178;13.546;2023-10-19T04:53:45;27.80;;;16.30;;
4420;SDS011;11824;51.178;13.546;2023-10-19T04:56:17;24.40;;;15.70;;
4420;SDS011;11824;51.178;13.546;2023-10-19T04:58:46;22.43;;;15.33;;
4420;SDS011;11824;51.178;13.546;2023-10-19T05:01:15;22.27;;;15.87;;
4420;SDS011;11824;51.178;13.546;2023-10-19T05:03:45;27.33;;;15.50;;
4420;SDS011;11824;51.178;13.546;2023-10-19T05:06:14;26.90;;;15.33;;
4420;SDS011;11824;51.178;13.546;2023-10-19T05:08:43;23.80;;;14.80;;
4420;SDS011;11824;51.178;13.546;2023-10-19T05:11:13;25.23;;;16.57;;
4420;SDS011;11824;51.178;13.546;2023-10-19T05:13:41;24.43;;;16.23;;
4420;SDS011;11824;51.178;13.546;2023-10-19T05:16:10;23.77;;;17.30;;
4420;SDS011;11824;51.178;13.546;2023-10-19T05:18:40;27.60;;;17.20;;
4420;SDS011;11824;51.178;13.546;2023-10-19T05:21:09;30.13;;;18.00;;
4420;SDS011;11824;51.178;13.546;2023-10-19T05:23:39;25.20;;;15.53;;
4420;SDS011;11824;51.178;13.546;2023-10-19T05:26:08;32.00;;;18.53;;
4420;SDS011;11824;51.178;13.546;2023-10-19T05:28:36;26.17;;;16.63;;
4420;SDS011;11824;51.178;13.546;2023-10-19T05:31:05;25.87;;;16.73;;
4420;SDS011;11824;51.178;13.546;2023-10-19T05:33:34;24.83;;;16.30;;
4420;SDS011;11824;51.178;13.546;2023-10-19T05:36:05;23.40;;;16.70;;
4420;SDS011;11824;51.178;13.546;2023-10-19T05:38:34;24.37;;;17.10;;
4420;SDS011;11824;51.178;13.546;2023-10-19T05:41:03;29.57;;;16.80;;
4420;SDS011;11824;51.178;13.546;2023-10-19T05:43:31;25.70;;;17.00;;
4420;SDS011;11824;51.178;13.546;2023-10-19T05:46:01;25.30;;;16.97;;
4420;SDS011;11824;51.178;13.546;2023-10-19T05:48:29;27.30;;;16.73;;
4420;SDS011;11824;51.178;13.546;2023-10-19T05:50:58;23.93;;;16.20;;
4420;SDS011;11824;51.178;13.546;2023-10-19T05:53:28;26.90;;;17.57;;
4420;SDS011;11824;51.178;13.546;2023-10-19T05:55:57;30.40;;;18.93;;
4420;SDS011;11824;51.178;13.546;2023-10-19T05:58:26;40.93;;;18.97;;
4420;SDS011;11824;51.178;13.546;2023-10-19T06:00:57;27.13;;;17.10;;
4420;SDS011;11824;51.178;13.546;2023-10-19T06:03:26;31.50;;;19.30;;
4420;SDS011;11824;51.178;13.546;2023-10-19T06:05:55;27.60;;;17.37;;
4420;SDS011;11824;51.178;13.546;2023-10-19T06:08:24;25.40;;;17.77;;
4420;SDS011;11824;51.178;13.546;2023-10-19T06:10:55;26.60;;;16.50;;
4420;SDS011;11824;51.178;13.546;2023-10-19T06:13:23;27.47;;;17.67;;
4420;SDS011;11824;51.178;13.546;2023-10-19T06:15:52;29.93;;;19.47;;
4420;SDS011;11824;51.178;13.546;2023-10-19T06:18:21;30.97;;;19.93;;
4420;SDS011;11824;51.178;13.546;2023-10-19T06:20:50;29.10;;;18.00;;
4420;SDS011;11824;51.178;13.546;2023-10-19T06:23:21;36.80;;;21.47;;
4420;SDS011;11824;51.178;13.546;2023-10-19T06:25:50;28.73;;;19.60;;
4420;SDS011;11824;51.178;13.546;2023-10-19T06:28:20;29.50;;;19.37;;
4420;SDS011;11824;51.178;13.546;2023-10-19T06:30:49;32.77;;;21.30;;
4420;SDS011;11824;51.178;13.546;2023-10-19T06:33:19;29.70;;;19.33;;
4420;SDS011;11824;51.178;13.546;2023-10-19T06:35:49;30.73;;;18.63;;
4420;SDS011;11824;51.178;13.546;2023-10-19T06:38:18;29.97;;;21.33;;
4420;SDS011;11824;51.178;13.546;2023-10-19T06:40:47;29.03;;;20.03;;
4420;SDS011;11824;51.178;13.546;2023-10-19T06:43:15;36.23;;;19.37;;
4420;SDS011;11824;51.178;13.546;2023-10-19T06:45:47;33.53;;;20.70;;
4420;SDS011;11824;51.178;13.546;2023-10-19T06:48:16;32.67;;;20.53;;
4420;SDS011;11824;51.178;13.546;2023-10-19T06:50:45;33.10;;;21.70;;
4420;SDS011;11824;51.178;13.546;2023-10-19T06:53:18;27.73;;;20.73;;
4420;SDS011;11824;51.178;13.546;2023-10-19T06:55:46;23.60;;;16.63;;
4420;SDS011;11824;51.178;13.546;2023-10-19T06:58:15;32.30;;;20.10;;
4420;SDS011;11824;51.178;13.546;2023-10-19T07:00:47;29.13;;;20.30;;
4420;SDS011;11824;51.178;13.546;2023-10-19T07:03:23;28.93;;;18.40;;
4420;SDS011;11824;51.178;13.546;2023-10-19T07:05:52;33.37;;;19.20;;
4420;SDS011;11824;51.178;13.546;2023-10-19T07:08:21;33.83;;;20.70;;
4420;SDS011;11824;51.178;13.546;2023-10-19T07:10:50;33.60;;;22.97;;
4420;SDS011;11824;51.178;13.546;2023-10-19T07:13:20;34.37;;;21.90;;
4420;SDS011;11824;51.178;13.546;2023-10-19T07:15:50;46.20;;;18.50;;
4420;SDS011;11824;51.178;13.546;2023-10-19T07:18:19;31.83;;;20.30;;
4420;SDS011;11824;51.178;13.546;2023-10-19T07:20:48;34.00;;;21.43;;
4420;SDS011;11824;51.178;13.546;2023-10-19T07:23:18;33.70;;;20.30;;
4420;SDS011;11824;51.178;13.546;2023-10-19T07:25:48;33.07;;;21.37;;
4420;SDS011;11824;51.178;13.546;2023-10-19T07:28:21;34.77;;;22.57;;
4420;SDS011;11824;51.178;13.546;2023-10-19T07:30:54;33.70;;;22.07;;
4420;SDS011;11824;51.178;13.546;2023-10-19T07:33:23;37.43;;;23.13;;
4420;SDS011;11824;51.178;13.546;2023-10-19T07:35:52;37.40;;;23.40;;
4420;SDS011;11824;51.178;13.546;2023-10-19T07:38:22;35.40;;;22.63;;
4420;SDS011;11824;51.178;13.546;2023-10-19T07:40:52;34.77;;;22.10;;
4420;SDS011;11824;51.178;13.546;2023-10-19T07:43:21;36.93;;;24.33;;
4420;SDS011;11824;51.178;13.546;2023-10-19T07:45:53;33.80;;;21.90;;
4420;SDS011;11824;51.178;13.546;2023-10-19T07:48:22;38.93;;;19.33;;
4420;SDS011;11824;51.178;13.546;2023-10-19T07:50:51;36.53;;;23.03;;
4420;SDS011;11824;51.178;13.546;2023-10-19T07:53:20;37.43;;;21.13;;
4420;SDS011;11824;51.178;13.546;2023-10-19T07:55:51;35.63;;;23.47;;
4420;SDS011;11824;51.178;13.546;2023-10-19T07:58:20;35.23;;;22.90;;
4420;SDS011;11824;51.178;13.546;2023-10-19T08:00:48;27.37;;;18.93;;
4420;SDS011;11824;51.178;13.546;2023-10-19T08:03:20;33.47;;;22.50;;
4420;SDS011;11824;51.178;13.546;2023-10-19T08:05:49;35.97;;;21.57;;
4420;SDS011;11824;51.178;13.546;2023-10-19T08:08:17;36.83;;;23.70;;
4420;SDS011;11824;51.178;13.546;2023-10-19T08:10:46;37.53;;;21.63;;
4420;SDS011;11824;51.178;13.546;2023-10-19T08:13:15;43.87;;;26.97;;
4420;SDS011;11824;51.178;13.546;2023-10-19T08:15:44;41.27;;;24.90;;
4420;SDS011;11824;51.178;13.546;2023-10-19T08:18:13;35.63;;;23.60;;
4420;SDS011;11824;51.178;13.546;2023-10-19T08:20:43;41.03;;;26.23;;
4420;SDS011;11824;51.178;13.546;2023-10-19T08:23:12;35.03;;;25.17;;
4420;SDS011;11824;51.178;13.546;2023-10-19T08:25:43;37.37;;;22.70;;
4420;SDS011;11824;51.178;13.546;2023-10-19T08:28:22;34.33;;;23.20;;
4420;SDS011;11824;51.178;13.546;2023-10-19T08:30:51;35.17;;;21.93;;
4420;SDS011;11824;51.178;13.546;2023-10-19T08:33:28;29.57;;;21.00;;
4420;SDS011;11824;51.178;13.546;2023-10-19T08:36:02;33.33;;;22.87;;
4420;SDS011;11824;51.178;13.546;2023-10-19T08:38:31;33.83;;;21.50;;
4420;SDS011;11824;51.178;13.546;2023-10-19T08:41:01;34.83;;;23.10;;
4420;SDS011;11824;51.178;13.546;2023-10-19T08:43:30;33.33;;;21.97;;
4420;SDS011;11824;51.178;13.546;2023-10-19T08:46:00;29.60;;;21.47;;
4420;SDS011;11824;51.178;13.546;2023-10-19T08:48:32;35.00;;;23.13;;
4420;SDS011;11824;51.178;13.546;2023-10-19T08:51:06;29.87;;;21.47;;
4420;SDS011;11824;51.178;13.546;2023-10-19T08:53:37;30.30;;;21.27;;
4420;SDS011;11824;51.178;13.546;2023-10-19T08:56:11;33.90;;;21.97;;
4420;SDS011;11824;51.178;13.546;2023-10-19T08:58:40;34.13;;;24.20;;
4420;SDS011;11824;51.178;13.546;2023-10-19T09:01:09;37.40;;;22.47;;
4420;SDS011;11824;51.178;13.546;2023-10-19T09:03:39;30.70;;;21.90;;
4420;SDS011;11824;51.178;13.546;2023-10-19T09:06:11;32.70;;;22.93;;
4420;SDS011;11824;51.178;13.546;2023-10-19T09:08:41;39.97;;;24.57;;
4420;SDS011;11824;51.178;13.546;2023-10-19T09:11:13;34.57;;;22.37;;
4420;SDS011;11824;51.178;13.546;2023-10-19T09:13:42;38.10;;;22.60;;
4420;SDS011;11824;51.178;13.546;2023-10-19T09:16:14;32.27;;;20.80;;
4420;SDS011;11824;51.178;13.546;2023-10-19T09:18:43;33.70;;;23.10;;
4420;SDS011;11824;51.178;13.546;2023-10-19T09:21:16;32.30;;;23.43;;
4420;SDS011;11824;51.178;13.546;2023-10-19T09:23:51;32.77;;;20.30;;
4420;SDS011;11824;51.178;13.546;2023-10-19T09:26:22;30.70;;;21.63;;
4420;SDS011;11824;51.178;13.546;2023-10-19T09:28:52;34.63;;;22.60;;
4420;SDS011;11824;51.178;13.546;2023-10-19T09:31:21;33.13;;;21.83;;
4420;SDS011;11824;51.178;13.546;2023-10-19T09:33:51;29.33;;;20.57;;
4420;SDS011;11824;51.178;13.546;2023-10-19T09:36:23;29.60;;;20.80;;
4420;SDS011;11824;51.178;13.546;2023-10-19T09:38:56;28.60;;;20.40;;
4420;SDS011;11824;51.178;13.546;2023-10-19T09:41:25;28.70;;;21.53;;
4420;SDS011;11824;51.178;13.546;2023-10-19T09:43:57;25.13;;;19.30;;
4420;SDS011;11824;51.178;13.546;2023-10-19T09:46:31;26.97;;;19.90;;
4420;SDS011;11824;51.178;13.546;2023-10-19T09:49:03;26.63;;;19.50;;
4420;SDS011;11824;51.178;13.546;2023-10-19T09:51:34;24.40;;;18.50;;
4420;SDS011;11824;51.178;13.546;2023-10-19T09:54:05;27.70;;;19.80;;
4420;SDS011;11824;51.178;13.546;2023-10-19T09:56:42;25.23;;;17.07;;
4420;SDS011;11824;51.178;13.546;2023-10-19T09:59:22;24.43;;;18.07;;
4420;SDS011;11824;51.178;13.546;2023-10-19T10:02:04;21.80;;;16.30;;
4420;SDS011;11824;51.178;13.546;2023-10-19T10:04:40;21.20;;;17.00;;
4420;SDS011;11824;51.178;13.546;2023-10-19T10:07:13;27.20;;;17.10;;
4420;SDS011;11824;51.178;13.546;2023-10-19T10:09:57;23.97;;;15.93;;
4420;SDS011;11824;51.178;13.546;2023-10-19T10:12:26;22.20;;;15.50;;
4420;SDS011;11824;51.178;13.546;2023-10-19T10:14:55;22.30;;;16.90;;
4420;SDS011;11824;51.178;13.546;2023-10-19T10:17:30;21.70;;;16.20;;
4420;SDS011;11824;51.178;13.546;2023-10-19T10:23:18;22.00;;;16.67;;
4420;SDS011;11824;51.178;13.546;2023-10-19T10:25:53;25.80;;;14.57;;
4420;SDS011;11824;51.178;13.546;2023-10-19T10:28:25;19.47;;;15.10;;
4420;SDS011;11824;51.178;13.546;2023-10-19T10:31:11;19.47;;;14.57;;
4420;SDS011;11824;51.178;13.546;2023-10-19T10:33:44;20.30;;;14.27;;
4420;SDS011;11824;51.178;13.546;2023-10-19T10:36:14;18.57;;;14.00;;
4420;SDS011;11824;51.178;13.546;2023-10-19T10:38:46;19.23;;;14.87;;
4420;SDS011;11824;51.178;13.546;2023-10-19T10:41:22;19.77;;;15.33;;
4420;SDS011;11824;51.178;13.546;2023-10-19T10:43:55;15.57;;;12.50;;
4420;SDS011;11824;51.178;13.546;2023-10-19T10:46:26;18.67;;;13.73;;
4420;SDS011;11824;51.178;13.546;2023-10-19T10:48:56;19.23;;;12.80;;
4420;SDS011;11824;51.178;13.546;2023-10-19T10:51:26;16.50;;;12.43;;
4420;SDS011;11824;51.178;13.546;2023-10-19T10:53:57;17.10;;;13.10;;
4420;SDS011;11824;51.178;13.546;2023-10-19T10:56:27;14.00;;;12.13;;
4420;SDS011;11824;51.178;13.546;2023-10-19T10:58:56;16.60;;;12.87;;
4420;SDS011;11824;51.178;13.546;2023-10-19T11:01:29;15.67;;;12.53;;
4420;SDS011;11824;51.178;13.546;2023-10-19T11:04:06;16.67;;;13.13;;
4420;SDS011;11824;51.178;13.546;2023-10-19T11:09:25;17.40;;;14.00;;
4420;SDS011;11824;51.178;13.546;2023-10-19T11:11:54;18.87;;;13.43;;
4420;SDS011;11824;51.178;13.546;2023-10-19T11:14:23;16.37;;;13.23;;
4420;SDS011;11824;51.178;13.546;2023-10-19T11:16:52;17.53;;;14.33;;
4420;SDS011;11824;51.178;13.546;2023-10-19T11:19:21;16.40;;;12.77;;
4420;SDS011;11824;51.178;13.546;2023-10-19T11:22:09;20.63;;;14.70;;
4420;SDS011;11824;51.178;13.546;2023-10-19T11:24:39;18.50;;;14.63;;
4420;SDS011;11824;51.178;13.546;2023-10-19T11:27:08;17.73;;;13.50;;
4420;SDS011;11824;51.178;13.546;2023-10-19T11:29:38;20.73;;;14.53;;
4420;SDS011;11824;51.178;13.546;2023-10-19T11:32:21;17.50;;;14.27;;
4420;SDS011;11824;51.178;13.546;2023-10-19T11:34:52;22.40;;;15.83;;
4420;SDS011;11824;51.178;13.546;2023-10-19T11:37:23;20.13;;;14.87;;
4420;SDS011;11824;51.178;13.546;2023-10-19T11:39:53;19.37;;;14.67;;
4420;SDS011;11824;51.178;13.546;2023-10-19T11:42:22;19.47;;;14.80;;
4420;SDS011;11824;51.178;13.546;2023-10-19T11:44:51;23.90;;;16.53;;
4420;SDS011;11824;51.178;13.546;2023-10-19T11:47:20;21.33;;;15.90;;
4420;SDS011;11824;51.178;13.546;2023-10-19T11:49:49;23.17;;;16.33;;
4420;SDS011;11824;51.178;13.546;2023-10-19T11:52:18;22.80;;;15.40;;
4420;SDS011;11824;51.178;13.546;2023-10-19T11:54:47;22.23;;;15.13;;
4420;SDS011;11824;51.178;13.546;2023-10-19T11:57:17;22.20;;;16.33;;
4420;SDS011;11824;51.178;13.546;2023-10-19T11:59:46;20.77;;;15.80;;
4420;SDS011;11824;51.178;13.546;2023-10-19T12:02:22;20.33;;;15.73;;
4420;SDS011;11824;51.178;13.546;2023-10-19T12:04:51;21.20;;;16.80;;
4420;SDS011;11824;51.178;13.546;2023-10-19T12:07:20;23.23;;;17.90;;
4420;SDS011;11824;51.178;13.546;2023-10-19T12:09:49;25.60;;;18.30;;
4420;SDS011;11824;51.178;13.546;2023-10-19T12:12:20;25.50;;;18.60;;
4420;SDS011;11824;51.178;13.546;2023-10-19T12:14:50;31.73;;;18.63;;
4420;SDS011;11824;51.178;13.546;2023-10-19T12:17:20;31.37;;;20.17;;
4420;SDS011;11824;51.178;13.546;2023-10-19T12:19:53;24.13;;;18.73;;
4420;SDS011;11824;51.178;13.546;2023-10-19T12:22:22;29.97;;;19.90;;
4420;SDS011;11824;51.178;13.546;2023-10-19T12:24:54;40.73;;;19.67;;
4420;SDS011;11824;51.178;13.546;2023-10-19T12:27:27;28.57;;;19.53;;
4420;SDS011;11824;51.178;13.546;2023-10-19T12:29:56;33.83;;;21.23;;
4420;SDS011;11824;51.178;13.546;2023-10-19T12:32:25;24.50;;;19.60;;
4420;SDS011;11824;51.178;13.546;2023-10-19T12:34:54;36.53;;;20.47;;
4420;SDS011;11824;51.178;13.546;2023-10-19T12:37:24;29.70;;;20.07;;
4420;SDS011;11824;51.178;13.546;2023-10-19T12:39:54;26.87;;;20.40;;
4420;SDS011;11824;51.178;13.546;2023-10-19T12:42:23;27.93;;;20.67;;
4420;SDS011;11824;51.178;13.546;2023-10-19T12:44:53;30.60;;;21.37;;
4420;SDS011;11824;51.178;13.546;2023-10-19T12:47:21;30.10;;;23.30;;
4420;SDS011;11824;51.178;13.546;2023-10-19T12:49:51;28.13;;;19.03;;
4420;SDS011;11824;51.178;13.546;2023-10-19T12:52:21;30.80;;;19.90;;
4420;SDS011;11824;51.178;13.546;2023-10-19T12:54:50;25.50;;;20.30;;
4420;SDS011;11824;51.178;13.546;2023-10-19T12:57:30;27.77;;;20.60;;
4420;SDS011;11824;51.178;13.546;2023-10-19T13:00:00;32.70;;;21.97;;
4420;SDS011;11824;51.178;13.546;2023-10-19T13:02:49;28.17;;;19.67;;
4420;SDS011;11824;51.178;13.546;2023-10-19T13:05:26;28.50;;;17.80;;
4420;SDS011;11824;51.178;13.546;2023-10-19T13:07:55;25.57;;;18.87;;
4420;SDS011;11824;51.178;13.546;2023-10-19T13:10:27;31.70;;;20.50;;
4420;SDS011;11824;51.178;13.546;2023-10-19T13:12:59;30.00;;;19.87;;
4420;SDS011;11824;51.178;13.546;2023-10-19T13:15:34;33.77;;;20.10;;
4420;SDS011;11824;51.178;13.546;2023-10-19T13:18:04;25.03;;;19.17;;
4420;SDS011;11824;51.178;13.546;2023-10-19T13:20:36;32.00;;;20.33;;
4420;SDS011;11824;51.178;13.546;2023-10-19T13:23:05;30.13;;;19.97;;
4420;SDS011;11824;51.178;13.546;2023-10-19T13:25:38;24.33;;;19.60;;
4420;SDS011;11824;51.178;13.546;2023-10-19T13:28:13;29.00;;;20.50;;
4420;SDS011;11824;51.178;13.546;2023-10-19T13:30:47;28.27;;;19.73;;
4420;SDS011;11824;51.178;13.546;2023-10-19T13:33:17;42.83;;;18.60;;
4420;SDS011;11824;51.178;13.546;2023-10-19T13:35:47;25.17;;;18.80;;
4420;SDS011;11824;51.178;13.546;2023-10-19T13:38:17;30.60;;;21.17;;
4420;SDS011;11824;51.178;13.546;2023-10-19T13:40:47;31.83;;;18.20;;
4420;SDS011;11824;51.178;13.546;2023-10-19T13:43:17;26.30;;;19.87;;
4420;SDS011;11824;51.178;13.546;2023-10-19T13:45:47;27.23;;;19.63;;
4420;SDS011;11824;51.178;13.546;2023-10-19T13:48:19;38.03;;;27.87;;
4420;SDS011;11824;51.178;13.546;2023-10-19T13:50:49;29.50;;;19.80;;
4420;SDS011;11824;51.178;13.546;2023-10-19T13:53:22;22.27;;;18.13;;
4420;SDS011;11824;51.178;13.546;2023-10-19T13:55:51;27.27;;;18.13;;
4420;SDS011;11824;51.178;13.546;2023-10-19T13:58:20;25.47;;;19.50;;
4420;SDS011;11824;51.178;13.546;2023-10-19T14:00:51;28.97;;;19.67;;
4420;SDS011;11824;51.178;13.546;2023-10-19T14:03:19;33.20;;;20.20;;
4420;SDS011;11824;51.178;13.546;2023-10-19T14:05:48;27.23;;;20.30;;
4420;SDS011;11824;51.178;13.546;2023-10-19T14:08:20;26.30;;;19.57;;
4420;SDS011;11824;51.178;13.546;2023-10-19T14:10:48;24.97;;;20.10;;
4420;SDS011;11824;51.178;13.546;2023-10-19T14:13:17;29.67;;;21.73;;
4420;SDS011;11824;51.178;13.546;2023-10-19T14:15:46;29.57;;;18.50;;
4420;SDS011;11824;51.178;13.546;2023-10-19T14:18:16;26.70;;;20.57;;
4420;SDS011;11824;51.178;13.546;2023-10-19T14:20:45;32.33;;;21.53;;
4420;SDS011;11824;51.178;13.546;2023-10-19T14:23:14;28.13;;;22.57;;
4420;SDS011;11824;51.178;13.546;2023-10-19T14:25:43;24.20;;;20.27;;
4420;SDS011;11824;51.178;13.546;2023-10-19T14:28:12;26.07;;;20.23;;
4420;SDS011;11824;51.178;13.546;2023-10-19T14:30:41;29.27;;;21.37;;
4420;SDS011;11824;51.178;13.546;2023-10-19T14:33:09;28.03;;;21.57;;
4420;SDS011;11824;51.178;13.546;2023-10-19T14:35:40;32.00;;;22.97;;
4420;SDS011;11824;51.178;13.546;2023-10-19T14:38:09;30.70;;;23.07;;
4420;SDS011;11824;51.178;13.546;2023-10-19T14:40:40;29.20;;;23.30;;
4420;SDS011;11824;51.178;13.546;2023-10-19T14:43:14;31.33;;;23.30;;
4420;SDS011;11824;51.178;13.546;2023-10-19T14:45:43;37.07;;;22.67;;
4420;SDS011;11824;51.178;13.546;2023-10-19T14:48:12;29.33;;;22.00;;
4420;SDS011;11824;51.178;13.546;2023-10-19T14:50:43;37.20;;;25.60;;
4420;SDS011;11824;51.178;13.546;2023-10-19T14:53:12;33.00;;;25.00;;
4420;SDS011;11824;51.178;13.546;2023-10-19T14:55:43;32.70;;;22.50;;
4420;SDS011;11824;51.178;13.546;2023-10-19T14:58:12;38.20;;;23.60;;